ENBV

Berlevåg Airport

Berlevåg, Norway
METAR ENBV 191050Z 23012KT 9999 BKN015 06/04 Q1006
Observed Flight Rules
Oct-19 @ 10:50 UTC (9 hours ago) Marginal Visual Flight Rules
Wind Visibility Clouds
230° at 12 knots 10,000+ meters
  • Broken at 1,500' AGL
Temperatures Readings
Current 6°C / 43°F
Dewpoint 4°C / 39°F
Humidity 87%
Altimeter 29.7" Hg
Pressure 1006 hPa
Elevation 13
METAR ENBV 191050Z 23012KT 9999 BKN015 06/04 Q1006
Observed Flight Rules
Oct-19 @ 10:50 UTC
(9 hours ago)
MVFR
Wind Visibility
230° at 12 knots 10,000+ meters
Clouds
  • Broken at 1,500' AGL
Temperature Dewpoint
6°C / 43°F 4°C / 39°F
Humidity Altimeter Pressure
87% 29.7" Hg 1006 hPa